Star Vega — 3EVB3 — position and weather

sailwx.info

Track history (hours):
 
Tides and Currents Weather Stations Pressure Air Temp Water Temp Dewpoint Dewpoint Depression Visibility Wind Speed Wind Dir Waves Ship Positions

Star Vega

Last reported at 2014-Dec-19 00:11 UTC. Time now 2014-Dec-19 16:31 UTC.
Position N 40°28' E 004°05'.

Length 189 m; draft 5.8 m.

Type: Cargo ship. MMSI: 354143000.

Date/timePositionNaut miles runAvg speedWind from/ knotsBaromVisibWave heightAir tempDewpointWater temp
2014-Dec-19 00:11N 40°28' E 004°05'710.3
2014-Dec-18 23:33N 40°31' E 003°58'1110.9
2014-Dec-18 22:33N 40°37' E 003°45'1110.9
2014-Dec-18 21:33N 40°42' E 003°33'1110.6
2014-Dec-18 20:34N 40°47' E 003°21'1110.8
2014-Dec-18 19:34N 40°52' E 003°08'1110.6
2014-Dec-18 18:33N 40°57' E 002°56'1110.6
2014-Dec-18 17:33N 41°02' E 002°43'1110.8
2014-Dec-18 16:33N 41°08' E 002°31'  
Track history (hours):
 
Tides and Currents Weather Stations Pressure Air Temp Water Temp Dewpoint Dewpoint Depression Visibility Wind Speed Wind Dir Waves Ship Positions

Star Vega

Last reported at 2014-Dec-19 00:11 UTC. Time now 2014-Dec-19 16:31 UTC.
Position N 40°28' E 004°05'.

Length 189 m; draft 5.8 m.

Type: Cargo ship. MMSI: 354143000.

Date/timePositionNaut miles runAvg speedWind from/ knotsBaromVisibWave heightAir tempDewpointWater temp
2014-Dec-19 00:11N 40°28' E 004°05'710.3
2014-Dec-18 23:33N 40°31' E 003°58'1110.9
2014-Dec-18 22:33N 40°37' E 003°45'1110.9
2014-Dec-18 21:33N 40°42' E 003°33'1110.6
2014-Dec-18 20:34N 40°47' E 003°21'1110.8
2014-Dec-18 19:34N 40°52' E 003°08'1110.6
2014-Dec-18 18:33N 40°57' E 002°56'1110.6
2014-Dec-18 17:33N 41°02' E 002°43'1110.8
2014-Dec-18 16:33N 41°08' E 002°31'  

Dump ship's entire track history